sensor_id;sensor_type;location;lat;lon;timestamp;P1;durP1;ratioP1;P2;durP2;ratioP2
23712;SDS011;12035;49.978;8.298;2023-12-20T00:03:04;8.48;;;3.85;;
23712;SDS011;12035;49.978;8.298;2023-12-20T00:08:01;6.82;;;3.45;;
23712;SDS011;12035;49.978;8.298;2023-12-20T00:13:01;5.30;;;3.22;;
23712;SDS011;12035;49.978;8.298;2023-12-20T00:17:58;7.32;;;3.55;;
23712;SDS011;12035;49.978;8.298;2023-12-20T00:22:56;4.72;;;3.10;;
23712;SDS011;12035;49.978;8.298;2023-12-20T00:27:53;4.28;;;2.80;;
23712;SDS011;12035;49.978;8.298;2023-12-20T00:32:52;3.63;;;2.50;;
23712;SDS011;12035;49.978;8.298;2023-12-20T00:37:49;4.95;;;2.30;;
23712;SDS011;12035;49.978;8.298;2023-12-20T00:42:46;4.30;;;2.65;;
23712;SDS011;12035;49.978;8.298;2023-12-20T00:47:43;3.72;;;2.60;;
23712;SDS011;12035;49.978;8.298;2023-12-20T00:52:41;4.00;;;2.50;;
23712;SDS011;12035;49.978;8.298;2023-12-20T00:57:38;3.40;;;2.05;;
23712;SDS011;12035;49.978;8.298;2023-12-20T01:02:35;4.78;;;2.50;;
23712;SDS011;12035;49.978;8.298;2023-12-20T01:07:32;3.42;;;2.10;;
23712;SDS011;12035;49.978;8.298;2023-12-20T01:12:31;3.45;;;2.50;;
23712;SDS011;12035;49.978;8.298;2023-12-20T01:17:28;2.72;;;1.67;;
23712;SDS011;12035;49.978;8.298;2023-12-20T01:22:25;3.78;;;2.13;;
23712;SDS011;12035;49.978;8.298;2023-12-20T01:27:21;3.65;;;1.95;;
23712;SDS011;12035;49.978;8.298;2023-12-20T01:32:20;3.58;;;2.13;;
23712;SDS011;12035;49.978;8.298;2023-12-20T01:37:17;2.75;;;1.67;;
23712;SDS011;12035;49.978;8.298;2023-12-20T01:42:14;2.80;;;1.80;;
23712;SDS011;12035;49.978;8.298;2023-12-20T01:47:11;2.88;;;1.70;;
23712;SDS011;12035;49.978;8.298;2023-12-20T01:52:10;3.15;;;1.65;;
23712;SDS011;12035;49.978;8.298;2023-12-20T01:57:07;2.13;;;1.50;;
23712;SDS011;12035;49.978;8.298;2023-12-20T02:02:04;3.00;;;1.77;;
23712;SDS011;12035;49.978;8.298;2023-12-20T02:07:03;2.25;;;1.40;;
23712;SDS011;12035;49.978;8.298;2023-12-20T02:12:02;4.35;;;1.63;;
23712;SDS011;12035;49.978;8.298;2023-12-20T02:17:00;2.75;;;1.38;;
23712;SDS011;12035;49.978;8.298;2023-12-20T02:22:08;1.90;;;1.10;;
23712;SDS011;12035;49.978;8.298;2023-12-20T02:27:05;2.80;;;1.10;;
23712;SDS011;12035;49.978;8.298;2023-12-20T02:32:03;1.15;;;0.80;;
23712;SDS011;12035;49.978;8.298;2023-12-20T02:37:01;1.42;;;0.90;;
23712;SDS011;12035;49.978;8.298;2023-12-20T02:42:00;2.13;;;1.10;;
23712;SDS011;12035;49.978;8.298;2023-12-20T02:46:57;2.47;;;1.13;;
23712;SDS011;12035;49.978;8.298;2023-12-20T02:51:54;1.55;;;0.98;;
23712;SDS011;12035;49.978;8.298;2023-12-20T02:56:51;1.85;;;1.13;;
23712;SDS011;12035;49.978;8.298;2023-12-20T03:01:49;1.75;;;0.93;;
23712;SDS011;12035;49.978;8.298;2023-12-20T03:06:46;3.08;;;1.10;;
23712;SDS011;12035;49.978;8.298;2023-12-20T03:11:43;1.58;;;0.70;;
23712;SDS011;12035;49.978;8.298;2023-12-20T03:16:40;1.65;;;0.80;;
23712;SDS011;12035;49.978;8.298;2023-12-20T03:21:38;0.75;;;0.60;;
23712;SDS011;12035;49.978;8.298;2023-12-20T03:26:35;0.80;;;0.50;;
23712;SDS011;12035;49.978;8.298;2023-12-20T03:31:32;1.52;;;0.65;;
23712;SDS011;12035;49.978;8.298;2023-12-20T03:36:29;0.70;;;0.50;;
23712;SDS011;12035;49.978;8.298;2023-12-20T03:41:27;1.70;;;0.80;;
23712;SDS011;12035;49.978;8.298;2023-12-20T03:46:24;2.25;;;0.60;;
23712;SDS011;12035;49.978;8.298;2023-12-20T03:56:18;1.03;;;0.67;;
23712;SDS011;12035;49.978;8.298;2023-12-20T04:01:16;1.05;;;0.60;;
23712;SDS011;12035;49.978;8.298;2023-12-20T04:06:16;0.85;;;0.60;;
23712;SDS011;12035;49.978;8.298;2023-12-20T04:11:13;0.80;;;0.55;;
23712;SDS011;12035;49.978;8.298;2023-12-20T04:16:10;1.13;;;0.60;;
23712;SDS011;12035;49.978;8.298;2023-12-20T04:26:05;0.90;;;0.60;;
23712;SDS011;12035;49.978;8.298;2023-12-20T04:31:02;1.55;;;0.70;;
23712;SDS011;12035;49.978;8.298;2023-12-20T04:35:59;1.60;;;0.90;;
23712;SDS011;12035;49.978;8.298;2023-12-20T04:40:59;1.20;;;0.80;;
23712;SDS011;12035;49.978;8.298;2023-12-20T04:45:56;2.60;;;0.90;;
23712;SDS011;12035;49.978;8.298;2023-12-20T04:50:53;2.15;;;0.80;;
23712;SDS011;12035;49.978;8.298;2023-12-20T04:55:50;1.48;;;0.80;;
23712;SDS011;12035;49.978;8.298;2023-12-20T05:00:48;1.95;;;0.80;;
23712;SDS011;12035;49.978;8.298;2023-12-20T05:05:45;2.58;;;0.88;;
23712;SDS011;12035;49.978;8.298;2023-12-20T05:10:42;2.90;;;0.90;;
23712;SDS011;12035;49.978;8.298;2023-12-20T05:15:39;1.90;;;0.80;;
23712;SDS011;12035;49.978;8.298;2023-12-20T05:20:37;3.03;;;0.82;;
23712;SDS011;12035;49.978;8.298;2023-12-20T05:25:34;4.18;;;1.00;;
23712;SDS011;12035;49.978;8.298;2023-12-20T05:30:31;5.05;;;1.30;;
23712;SDS011;12035;49.978;8.298;2023-12-20T05:35:28;4.18;;;0.70;;
23712;SDS011;12035;49.978;8.298;2023-12-20T05:45:23;2.55;;;0.70;;
23712;SDS011;12035;49.978;8.298;2023-12-20T05:50:20;3.28;;;0.80;;
23712;SDS011;12035;49.978;8.298;2023-12-20T05:55:17;2.50;;;0.90;;
23712;SDS011;12035;49.978;8.298;2023-12-20T06:00:16;4.60;;;1.60;;
23712;SDS011;12035;49.978;8.298;2023-12-20T06:05:14;6.80;;;1.60;;
23712;SDS011;12035;49.978;8.298;2023-12-20T06:10:11;5.93;;;1.02;;
23712;SDS011;12035;49.978;8.298;2023-12-20T06:15:09;2.47;;;0.88;;
23712;SDS011;12035;49.978;8.298;2023-12-20T06:20:08;4.82;;;1.10;;
23712;SDS011;12035;49.978;8.298;2023-12-20T06:25:06;3.47;;;1.15;;
23712;SDS011;12035;49.978;8.298;2023-12-20T06:30:05;5.70;;;1.25;;
23712;SDS011;12035;49.978;8.298;2023-12-20T06:35:04;3.33;;;1.00;;
23712;SDS011;12035;49.978;8.298;2023-12-20T06:40:05;4.80;;;1.00;;
23712;SDS011;12035;49.978;8.298;2023-12-20T06:45:04;3.88;;;0.85;;
23712;SDS011;12035;49.978;8.298;2023-12-20T06:50:01;5.35;;;1.05;;
23712;SDS011;12035;49.978;8.298;2023-12-20T06:55:00;4.20;;;0.90;;
23712;SDS011;12035;49.978;8.298;2023-12-20T06:59:57;4.45;;;1.08;;
23712;SDS011;12035;49.978;8.298;2023-12-20T07:04:54;4.13;;;1.20;;
23712;SDS011;12035;49.978;8.298;2023-12-20T07:09:51;4.05;;;1.02;;
23712;SDS011;12035;49.978;8.298;2023-12-20T07:14:49;4.05;;;1.00;;
23712;SDS011;12035;49.978;8.298;2023-12-20T07:19:46;3.60;;;1.02;;
23712;SDS011;12035;49.978;8.298;2023-12-20T07:24:43;3.05;;;0.90;;
23712;SDS011;12035;49.978;8.298;2023-12-20T07:29:41;3.55;;;1.10;;
23712;SDS011;12035;49.978;8.298;2023-12-20T07:34:39;6.28;;;1.30;;
23712;SDS011;12035;49.978;8.298;2023-12-20T07:39:36;5.88;;;1.42;;
23712;SDS011;12035;49.978;8.298;2023-12-20T07:44:33;3.90;;;1.40;;
23712;SDS011;12035;49.978;8.298;2023-12-20T07:49:30;3.65;;;1.17;;
23712;SDS011;12035;49.978;8.298;2023-12-20T07:54:29;8.48;;;1.55;;
23712;SDS011;12035;49.978;8.298;2023-12-20T07:59:26;4.93;;;1.20;;
23712;SDS011;12035;49.978;8.298;2023-12-20T08:04:23;5.82;;;1.27;;
23712;SDS011;12035;49.978;8.298;2023-12-20T08:09:20;6.50;;;1.30;;
23712;SDS011;12035;49.978;8.298;2023-12-20T08:14:18;4.47;;;1.30;;
23712;SDS011;12035;49.978;8.298;2023-12-20T08:19:15;6.50;;;1.77;;
23712;SDS011;12035;49.978;8.298;2023-12-20T08:24:12;6.07;;;1.20;;
23712;SDS011;12035;49.978;8.298;2023-12-20T08:29:09;5.97;;;1.10;;
23712;SDS011;12035;49.978;8.298;2023-12-20T08:34:07;7.07;;;1.85;;
23712;SDS011;12035;49.978;8.298;2023-12-20T08:39:06;7.78;;;1.23;;
23712;SDS011;12035;49.978;8.298;2023-12-20T08:44:03;6.90;;;1.45;;
23712;SDS011;12035;49.978;8.298;2023-12-20T08:49:00;3.58;;;1.08;;
23712;SDS011;12035;49.978;8.298;2023-12-20T08:53:59;4.43;;;1.50;;
23712;SDS011;12035;49.978;8.298;2023-12-20T08:58:56;4.85;;;1.48;;
23712;SDS011;12035;49.978;8.298;2023-12-20T09:03:53;3.33;;;1.15;;
23712;SDS011;12035;49.978;8.298;2023-12-20T09:08:51;6.97;;;1.67;;
23712;SDS011;12035;49.978;8.298;2023-12-20T09:13:49;3.72;;;1.00;;
23712;SDS011;12035;49.978;8.298;2023-12-20T09:18:46;5.57;;;1.38;;
23712;SDS011;12035;49.978;8.298;2023-12-20T09:23:43;8.43;;;1.60;;
23712;SDS011;12035;49.978;8.298;2023-12-20T09:28:40;8.63;;;1.67;;
23712;SDS011;12035;49.978;8.298;2023-12-20T09:33:38;8.02;;;1.50;;
23712;SDS011;12035;49.978;8.298;2023-12-20T09:38:35;3.95;;;1.02;;
23712;SDS011;12035;49.978;8.298;2023-12-20T09:43:33;7.07;;;1.50;;
23712;SDS011;12035;49.978;8.298;2023-12-20T09:48:33;7.38;;;1.30;;
23712;SDS011;12035;49.978;8.298;2023-12-20T09:53:33;5.90;;;1.40;;
23712;SDS011;12035;49.978;8.298;2023-12-20T09:58:36;8.70;;;1.70;;
23712;SDS011;12035;49.978;8.298;2023-12-20T10:03:34;4.40;;;1.33;;
23712;SDS011;12035;49.978;8.298;2023-12-20T10:08:31;5.10;;;1.40;;
23712;SDS011;12035;49.978;8.298;2023-12-20T10:13:29;5.57;;;1.30;;
23712;SDS011;12035;49.978;8.298;2023-12-20T10:18:28;4.10;;;1.20;;
23712;SDS011;12035;49.978;8.298;2023-12-20T10:23:26;8.15;;;2.25;;
23712;SDS011;12035;49.978;8.298;2023-12-20T10:28:24;6.72;;;1.38;;
23712;SDS011;12035;49.978;8.298;2023-12-20T10:33:23;4.22;;;1.40;;
23712;SDS011;12035;49.978;8.298;2023-12-20T10:38:21;4.43;;;1.10;;
23712;SDS011;12035;49.978;8.298;2023-12-20T10:43:19;4.22;;;1.08;;
23712;SDS011;12035;49.978;8.298;2023-12-20T10:48:18;5.07;;;1.30;;
23712;SDS011;12035;49.978;8.298;2023-12-20T10:53:17;6.07;;;1.52;;
23712;SDS011;12035;49.978;8.298;2023-12-20T10:58:15;5.88;;;1.33;;
23712;SDS011;12035;49.978;8.298;2023-12-20T11:03:15;6.15;;;1.30;;
23712;SDS011;12035;49.978;8.298;2023-12-20T11:08:20;4.88;;;1.20;;
23712;SDS011;12035;49.978;8.298;2023-12-20T11:13:26;5.72;;;1.15;;
23712;SDS011;12035;49.978;8.298;2023-12-20T11:18:29;9.02;;;1.40;;
23712;SDS011;12035;49.978;8.298;2023-12-20T11:23:27;7.38;;;1.40;;
23712;SDS011;12035;49.978;8.298;2023-12-20T11:28:26;5.95;;;1.23;;
23712;SDS011;12035;49.978;8.298;2023-12-20T11:33:25;3.42;;;0.90;;
23712;SDS011;12035;49.978;8.298;2023-12-20T11:38:27;4.30;;;1.40;;
23712;SDS011;12035;49.978;8.298;2023-12-20T11:43:30;10.98;;;1.70;;
23712;SDS011;12035;49.978;8.298;2023-12-20T11:48:28;5.53;;;1.67;;
23712;SDS011;12035;49.978;8.298;2023-12-20T11:53:28;4.15;;;1.15;;
23712;SDS011;12035;49.978;8.298;2023-12-20T11:58:25;6.25;;;1.25;;
23712;SDS011;12035;49.978;8.298;2023-12-20T12:03:23;6.85;;;1.73;;
23712;SDS011;12035;49.978;8.298;2023-12-20T12:08:19;3.40;;;1.23;;
23712;SDS011;12035;49.978;8.298;2023-12-20T12:18:15;3.03;;;1.10;;
23712;SDS011;12035;49.978;8.298;2023-12-20T12:23:12;5.43;;;1.75;;
23712;SDS011;12035;49.978;8.298;2023-12-20T12:28:09;8.15;;;1.02;;
23712;SDS011;12035;49.978;8.298;2023-12-20T12:33:08;4.43;;;1.17;;
23712;SDS011;12035;49.978;8.298;2023-12-20T12:38:06;4.13;;;1.60;;
23712;SDS011;12035;49.978;8.298;2023-12-20T12:43:04;5.03;;;1.48;;
23712;SDS011;12035;49.978;8.298;2023-12-20T12:48:02;6.70;;;1.65;;
23712;SDS011;12035;49.978;8.298;2023-12-20T12:53:00;6.13;;;1.20;;
23712;SDS011;12035;49.978;8.298;2023-12-20T12:57:57;2.55;;;1.08;;
23712;SDS011;12035;49.978;8.298;2023-12-20T13:07:51;4.50;;;1.20;;
23712;SDS011;12035;49.978;8.298;2023-12-20T13:17:46;5.03;;;1.30;;
23712;SDS011;12035;49.978;8.298;2023-12-20T13:22:44;4.22;;;1.30;;
23712;SDS011;12035;49.978;8.298;2023-12-20T13:27:41;6.70;;;1.20;;
23712;SDS011;12035;49.978;8.298;2023-12-20T13:32:40;6.65;;;1.60;;
23712;SDS011;12035;49.978;8.298;2023-12-20T13:37:37;5.80;;;1.23;;
23712;SDS011;12035;49.978;8.298;2023-12-20T13:42:35;4.65;;;1.10;;
23712;SDS011;12035;49.978;8.298;2023-12-20T13:47:33;7.00;;;1.40;;
23712;SDS011;12035;49.978;8.298;2023-12-20T13:52:33;5.88;;;1.20;;
23712;SDS011;12035;49.978;8.298;2023-12-20T13:57:30;3.58;;;0.90;;
23712;SDS011;12035;49.978;8.298;2023-12-20T14:07:23;5.47;;;1.30;;
23712;SDS011;12035;49.978;8.298;2023-12-20T14:12:22;3.80;;;1.00;;
23712;SDS011;12035;49.978;8.298;2023-12-20T14:17:19;4.57;;;1.00;;
23712;SDS011;12035;49.978;8.298;2023-12-20T14:22:16;5.35;;;0.93;;
23712;SDS011;12035;49.978;8.298;2023-12-20T14:27:13;5.68;;;1.02;;
23712;SDS011;12035;49.978;8.298;2023-12-20T14:37:10;4.45;;;0.82;;
23712;SDS011;12035;49.978;8.298;2023-12-20T14:42:07;3.13;;;1.15;;
23712;SDS011;12035;49.978;8.298;2023-12-20T14:47:07;2.38;;;0.90;;
23712;SDS011;12035;49.978;8.298;2023-12-20T14:52:05;3.92;;;1.17;;
23712;SDS011;12035;49.978;8.298;2023-12-20T14:57:02;5.30;;;0.85;;
23712;SDS011;12035;49.978;8.298;2023-12-20T15:01:59;4.47;;;1.30;;
23712;SDS011;12035;49.978;8.298;2023-12-20T15:06:59;2.88;;;0.70;;
23712;SDS011;12035;49.978;8.298;2023-12-20T15:11:58;4.43;;;1.17;;
23712;SDS011;12035;49.978;8.298;2023-12-20T15:16:55;3.47;;;1.15;;
23712;SDS011;12035;49.978;8.298;2023-12-20T15:21:52;3.97;;;1.25;;
23712;SDS011;12035;49.978;8.298;2023-12-20T15:26:49;3.22;;;1.10;;
23712;SDS011;12035;49.978;8.298;2023-12-20T15:31:48;4.43;;;1.38;;
23712;SDS011;12035;49.978;8.298;2023-12-20T15:36:45;3.83;;;1.00;;
23712;SDS011;12035;49.978;8.298;2023-12-20T15:41:42;4.50;;;0.90;;
23712;SDS011;12035;49.978;8.298;2023-12-20T15:51:38;5.13;;;1.65;;
23712;SDS011;12035;49.978;8.298;2023-12-20T15:56:35;7.43;;;1.40;;
23712;SDS011;12035;49.978;8.298;2023-12-20T16:01:32;8.38;;;1.40;;
23712;SDS011;12035;49.978;8.298;2023-12-20T16:06:30;5.00;;;1.40;;
23712;SDS011;12035;49.978;8.298;2023-12-20T16:11:31;8.23;;;1.10;;
23712;SDS011;12035;49.978;8.298;2023-12-20T16:16:28;8.50;;;1.85;;
23712;SDS011;12035;49.978;8.298;2023-12-20T16:21:25;4.72;;;1.40;;
23712;SDS011;12035;49.978;8.298;2023-12-20T16:31:20;5.00;;;1.43;;
23712;SDS011;12035;49.978;8.298;2023-12-20T16:36:17;6.82;;;1.67;;
23712;SDS011;12035;49.978;8.298;2023-12-20T16:41:15;4.72;;;1.50;;
23712;SDS011;12035;49.978;8.298;2023-12-20T16:46:12;4.90;;;1.17;;
23712;SDS011;12035;49.978;8.298;2023-12-20T16:51:11;7.30;;;1.30;;
23712;SDS011;12035;49.978;8.298;2023-12-20T16:56:08;7.75;;;1.52;;
23712;SDS011;12035;49.978;8.298;2023-12-20T17:01:05;6.55;;;1.30;;
23712;SDS011;12035;49.978;8.298;2023-12-20T17:06:03;6.00;;;1.40;;
23712;SDS011;12035;49.978;8.298;2023-12-20T17:11:02;3.38;;;1.23;;
23712;SDS011;12035;49.978;8.298;2023-12-20T17:15:59;6.25;;;1.15;;
23712;SDS011;12035;49.978;8.298;2023-12-20T17:20:56;7.18;;;1.33;;
23712;SDS011;12035;49.978;8.298;2023-12-20T17:25:53;5.05;;;1.30;;
23712;SDS011;12035;49.978;8.298;2023-12-20T17:30:52;6.78;;;1.63;;
23712;SDS011;12035;49.978;8.298;2023-12-20T17:35:49;5.20;;;1.55;;
23712;SDS011;12035;49.978;8.298;2023-12-20T17:40:46;6.88;;;1.40;;
23712;SDS011;12035;49.978;8.298;2023-12-20T17:45:44;6.38;;;1.00;;
23712;SDS011;12035;49.978;8.298;2023-12-20T17:50:42;6.90;;;1.13;;
23712;SDS011;12035;49.978;8.298;2023-12-20T17:55:40;7.20;;;1.35;;
23712;SDS011;12035;49.978;8.298;2023-12-20T18:00:36;6.07;;;1.30;;
23712;SDS011;12035;49.978;8.298;2023-12-20T18:05:33;7.25;;;1.50;;
23712;SDS011;12035;49.978;8.298;2023-12-20T18:10:32;5.78;;;1.27;;
23712;SDS011;12035;49.978;8.298;2023-12-20T18:15:29;5.38;;;1.50;;
23712;SDS011;12035;49.978;8.298;2023-12-20T18:20:26;7.22;;;1.70;;
23712;SDS011;12035;49.978;8.298;2023-12-20T18:25:23;5.72;;;1.25;;
23712;SDS011;12035;49.978;8.298;2023-12-20T18:30:21;7.97;;;1.60;;
23712;SDS011;12035;49.978;8.298;2023-12-20T18:35:18;8.18;;;1.50;;
23712;SDS011;12035;49.978;8.298;2023-12-20T18:40:15;7.38;;;1.58;;
23712;SDS011;12035;49.978;8.298;2023-12-20T18:45:12;9.25;;;1.88;;
23712;SDS011;12035;49.978;8.298;2023-12-20T18:50:12;6.35;;;1.95;;
23712;SDS011;12035;49.978;8.298;2023-12-20T18:55:09;5.63;;;1.73;;
23712;SDS011;12035;49.978;8.298;2023-12-20T19:00:06;5.63;;;1.40;;
23712;SDS011;12035;49.978;8.298;2023-12-20T19:05:06;7.30;;;1.92;;
23712;SDS011;12035;49.978;8.298;2023-12-20T19:10:05;5.45;;;1.38;;
23712;SDS011;12035;49.978;8.298;2023-12-20T19:15:02;7.82;;;2.25;;
23712;SDS011;12035;49.978;8.298;2023-12-20T19:20:00;5.25;;;1.90;;
23712;SDS011;12035;49.978;8.298;2023-12-20T19:24:59;7.18;;;1.80;;
23712;SDS011;12035;49.978;8.298;2023-12-20T19:30:02;6.47;;;2.05;;
23712;SDS011;12035;49.978;8.298;2023-12-20T19:35:00;5.10;;;1.67;;
23712;SDS011;12035;49.978;8.298;2023-12-20T19:39:57;4.78;;;1.50;;
23712;SDS011;12035;49.978;8.298;2023-12-20T19:44:54;6.68;;;1.70;;
23712;SDS011;12035;49.978;8.298;2023-12-20T19:49:53;6.47;;;1.42;;
23712;SDS011;12035;49.978;8.298;2023-12-20T19:54:51;6.95;;;1.98;;
23712;SDS011;12035;49.978;8.298;2023-12-20T19:59:48;5.55;;;1.80;;
23712;SDS011;12035;49.978;8.298;2023-12-20T20:04:45;6.07;;;1.63;;
23712;SDS011;12035;49.978;8.298;2023-12-20T20:09:43;6.05;;;1.90;;
23712;SDS011;12035;49.978;8.298;2023-12-20T20:14:40;4.85;;;1.50;;
23712;SDS011;12035;49.978;8.298;2023-12-20T20:19:37;5.32;;;1.90;;
23712;SDS011;12035;49.978;8.298;2023-12-20T20:24:34;8.15;;;2.13;;
23712;SDS011;12035;49.978;8.298;2023-12-20T20:29:33;9.45;;;2.17;;
23712;SDS011;12035;49.978;8.298;2023-12-20T20:34:30;6.47;;;2.05;;
23712;SDS011;12035;49.978;8.298;2023-12-20T20:39:27;7.97;;;2.10;;
23712;SDS011;12035;49.978;8.298;2023-12-20T20:44:24;5.32;;;1.73;;
23712;SDS011;12035;49.978;8.298;2023-12-20T20:49:22;4.82;;;1.73;;
23712;SDS011;12035;49.978;8.298;2023-12-20T20:54:19;5.05;;;1.73;;
23712;SDS011;12035;49.978;8.298;2023-12-20T20:59:16;5.05;;;1.80;;
23712;SDS011;12035;49.978;8.298;2023-12-20T21:04:13;8.82;;;2.05;;
23712;SDS011;12035;49.978;8.298;2023-12-20T21:09:12;6.63;;;1.75;;
23712;SDS011;12035;49.978;8.298;2023-12-20T21:14:09;4.82;;;1.92;;
23712;SDS011;12035;49.978;8.298;2023-12-20T21:19:06;4.40;;;1.73;;
23712;SDS011;12035;49.978;8.298;2023-12-20T21:24:04;3.72;;;1.70;;
23712;SDS011;12035;49.978;8.298;2023-12-20T21:29:03;4.47;;;1.70;;
23712;SDS011;12035;49.978;8.298;2023-12-20T21:34:03;3.65;;;1.50;;
23712;SDS011;12035;49.978;8.298;2023-12-20T21:39:01;2.60;;;1.35;;
23712;SDS011;12035;49.978;8.298;2023-12-20T21:43:59;3.40;;;1.58;;
23712;SDS011;12035;49.978;8.298;2023-12-20T21:48:57;3.08;;;1.20;;
23712;SDS011;12035;49.978;8.298;2023-12-20T21:53:54;2.75;;;1.20;;
23712;SDS011;12035;49.978;8.298;2023-12-20T21:58:54;3.58;;;1.20;;
23712;SDS011;12035;49.978;8.298;2023-12-20T22:03:51;3.30;;;1.23;;
23712;SDS011;12035;49.978;8.298;2023-12-20T22:08:50;3.22;;;1.40;;
23712;SDS011;12035;49.978;8.298;2023-12-20T22:13:47;2.70;;;1.13;;
23712;SDS011;12035;49.978;8.298;2023-12-20T22:18:44;3.63;;;1.42;;
23712;SDS011;12035;49.978;8.298;2023-12-20T22:23:41;3.00;;;1.20;;
23712;SDS011;12035;49.978;8.298;2023-12-20T22:28:39;3.28;;;0.80;;
23712;SDS011;12035;49.978;8.298;2023-12-20T22:33:36;2.47;;;1.00;;
23712;SDS011;12035;49.978;8.298;2023-12-20T22:38:33;1.25;;;0.80;;
23712;SDS011;12035;49.978;8.298;2023-12-20T22:43:30;1.20;;;0.75;;
23712;SDS011;12035;49.978;8.298;2023-12-20T22:48:29;1.95;;;0.82;;
23712;SDS011;12035;49.978;8.298;2023-12-20T22:53:26;3.42;;;0.77;;
23712;SDS011;12035;49.978;8.298;2023-12-20T22:58:23;1.52;;;0.73;;
23712;SDS011;12035;49.978;8.298;2023-12-20T23:03:20;1.77;;;0.80;;
23712;SDS011;12035;49.978;8.298;2023-12-20T23:08:21;1.60;;;0.70;;
23712;SDS011;12035;49.978;8.298;2023-12-20T23:13:18;2.05;;;0.70;;
23712;SDS011;12035;49.978;8.298;2023-12-20T23:18:15;0.82;;;0.60;;
23712;SDS011;12035;49.978;8.298;2023-12-20T23:23:14;2.38;;;0.80;;
23712;SDS011;12035;49.978;8.298;2023-12-20T23:28:12;2.83;;;0.80;;
23712;SDS011;12035;49.978;8.298;2023-12-20T23:33:09;1.50;;;0.60;;
23712;SDS011;12035;49.978;8.298;2023-12-20T23:38:06;1.85;;;0.60;;
23712;SDS011;12035;49.978;8.298;2023-12-20T23:43:03;1.95;;;0.70;;
23712;SDS011;12035;49.978;8.298;2023-12-20T23:48:01;2.42;;;0.80;;
23712;SDS011;12035;49.978;8.298;2023-12-20T23:52:59;1.92;;;0.68;;
23712;SDS011;12035;49.978;8.298;2023-12-20T23:57:56;1.42;;;0.80;;
